createdAt,value
2018-11-14T00:02:13.221Z,5.37
2018-11-14T00:07:16.591Z,4.23
2018-11-14T00:12:19.977Z,2.90
2018-11-14T00:17:23.827Z,5.23
2018-11-14T00:22:27.170Z,3.90
2018-11-14T00:27:30.536Z,4.03
2018-11-14T00:32:33.893Z,3.57
2018-11-14T00:37:37.277Z,3.77
2018-11-14T00:42:41.410Z,2.80
2018-11-14T00:47:45.863Z,3.27
2018-11-14T00:52:49.212Z,4.53
2018-11-14T00:57:53.324Z,3.50
2018-11-14T01:02:56.690Z,3.60
2018-11-14T01:08:00.614Z,5.00
2018-11-14T01:13:04.042Z,4.27
2018-11-14T01:18:07.431Z,4.43
2018-11-14T01:23:10.771Z,5.80
2018-11-14T01:28:14.226Z,3.97
2018-11-14T01:33:18.286Z,3.63
2018-11-14T01:38:21.684Z,4.57
2018-11-14T01:43:25.146Z,3.73
2018-11-14T01:48:28.499Z,3.87
2018-11-14T01:53:31.880Z,4.23
2018-11-14T01:58:35.328Z,5.10
2018-11-14T02:03:38.683Z,4.77
2018-11-14T02:08:42.056Z,3.23
2018-11-14T02:13:45.422Z,3.65
2018-11-14T02:18:48.811Z,4.50
2018-11-14T02:23:52.227Z,3.77
2018-11-14T02:28:56.432Z,5.67
2018-11-14T02:33:59.799Z,3.23
2018-11-14T02:39:03.208Z,4.93
2018-11-14T02:44:06.639Z,4.20
2018-11-14T02:49:10.014Z,4.20
2018-11-14T02:54:13.374Z,3.27
2018-11-14T02:59:16.782Z,5.03
2018-11-14T03:04:20.192Z,5.67
2018-11-14T03:09:24.129Z,5.03
2018-11-14T03:14:28.367Z,5.03
2018-11-14T03:19:31.729Z,3.25
2018-11-14T03:24:35.098Z,4.80
2018-11-14T03:29:38.492Z,4.67
2018-11-14T03:34:41.869Z,4.97
2018-11-14T03:39:45.263Z,5.50
2018-11-14T03:44:48.654Z,3.87
2018-11-14T03:49:52.066Z,3.97
2018-11-14T03:54:55.439Z,4.20
2018-11-14T03:59:58.841Z,4.80
2018-11-14T04:05:02.206Z,6.83
2018-11-14T04:10:07.417Z,6.90
2018-11-14T04:15:12.134Z,7.57
2018-11-14T04:20:16.746Z,7.90
2018-11-14T04:25:20.898Z,4.17
2018-11-14T04:30:24.507Z,4.70
2018-11-14T04:35:27.897Z,4.37
2018-11-14T04:40:31.528Z,5.87
2018-11-14T04:45:35.564Z,5.87
2018-11-14T04:50:38.948Z,4.07
2018-11-14T04:55:42.287Z,5.03
2018-11-14T05:00:45.715Z,4.33
2018-11-14T05:05:49.146Z,6.63
2018-11-14T05:10:52.543Z,6.47
2018-11-14T05:15:56.011Z,5.50
2018-11-14T05:20:59.349Z,5.37
2018-11-14T05:26:02.708Z,5.03
2018-11-14T05:31:06.133Z,7.43
2018-11-14T05:36:09.497Z,5.57
2018-11-14T05:41:13.086Z,5.37
2018-11-14T05:46:16.479Z,5.17
2018-11-14T05:51:19.869Z,6.83
2018-11-14T05:56:23.310Z,5.23
2018-11-14T06:01:26.698Z,6.40
2018-11-14T06:06:30.106Z,7.50
2018-11-14T06:11:34.005Z,6.77
2018-11-14T06:16:37.404Z,5.83
2018-11-14T06:21:41.768Z,5.67
2018-11-14T06:26:45.166Z,7.03
2018-11-14T06:31:48.746Z,5.80
2018-11-14T06:36:52.386Z,8.80
2018-11-14T06:41:55.780Z,5.03
2018-11-14T06:46:59.187Z,5.40
2018-11-14T06:52:03.319Z,5.77
2018-11-14T06:57:07.689Z,5.90
2018-11-14T07:02:11.056Z,7.07
2018-11-14T07:07:14.494Z,6.40
2018-11-14T07:12:17.875Z,4.37
2018-11-14T07:17:21.289Z,8.27
2018-11-14T07:22:24.762Z,9.57
2018-11-14T07:27:28.123Z,7.50
2018-11-14T07:32:32.976Z,8.57
2018-11-14T07:37:36.495Z,6.60
2018-11-14T07:42:40.283Z,9.53
2018-11-14T07:47:43.634Z,8.57
2018-11-14T07:52:47.009Z,9.50
2018-11-14T07:57:50.371Z,6.37
2018-11-14T08:02:53.739Z,9.23
2018-11-14T08:07:57.241Z,6.97
2018-11-14T08:13:00.507Z,7.90
2018-11-14T08:18:04.808Z,8.07
2018-11-14T08:23:08.247Z,10.47
2018-11-14T08:28:11.650Z,6.53
2018-11-14T08:33:15.199Z,6.03
2018-11-14T08:38:18.559Z,7.80
2018-11-14T08:43:22.020Z,6.50
2018-11-14T08:48:25.486Z,8.30
2018-11-14T08:53:28.873Z,5.60
2018-11-14T08:58:32.206Z,6.53
2018-11-14T09:03:36.235Z,7.33
2018-11-14T09:08:39.646Z,5.97
2018-11-14T09:13:43.122Z,8.57
2018-11-14T09:18:46.829Z,5.07
2018-11-14T09:23:50.204Z,7.30
2018-11-14T09:28:53.557Z,4.77
2018-11-14T09:33:57.036Z,6.78
2018-11-14T09:39:01.086Z,6.57
2018-11-14T09:44:04.828Z,4.93
2018-11-14T09:49:08.216Z,6.87
2018-11-14T09:54:11.615Z,7.83
2018-11-14T09:59:15.105Z,12.83
2018-11-14T10:04:18.478Z,7.63
2018-11-14T10:09:21.871Z,7.60
2018-11-14T10:14:25.270Z,10.53
2018-11-14T10:19:28.657Z,7.07
2018-11-14T10:24:32.018Z,11.10
2018-11-14T10:29:35.462Z,7.60
2018-11-14T10:34:38.838Z,5.77
2018-11-14T10:39:42.269Z,5.10
2018-11-14T10:44:46.381Z,6.43
2018-11-14T10:49:49.821Z,5.60
2018-11-14T10:54:53.246Z,6.17
2018-11-14T10:59:56.637Z,7.63
2018-11-14T11:05:05.322Z,7.00
2018-11-14T11:11:12.708Z,9.20
2018-11-14T11:16:21.438Z,10.73
2018-11-14T11:21:24.838Z,9.67
2018-11-14T11:26:28.204Z,9.80
2018-11-14T11:31:31.619Z,7.53
2018-11-14T11:36:35.103Z,8.13
2018-11-14T11:41:38.619Z,7.83
2018-11-14T11:46:43.020Z,6.77
2018-11-14T11:51:46.477Z,6.73
2018-11-14T11:56:49.898Z,7.20
2018-11-14T12:01:53.334Z,7.07
2018-11-14T12:06:56.844Z,5.77
2018-11-14T12:12:00.165Z,7.37
2018-11-14T12:17:04.254Z,6.87
2018-11-14T12:22:07.656Z,5.07
2018-11-14T12:27:11.054Z,7.43
2018-11-14T12:32:14.460Z,6.50
2018-11-14T12:37:17.846Z,6.00
2018-11-14T12:42:21.195Z,7.97
2018-11-14T12:47:25.295Z,4.90
2018-11-14T12:52:28.709Z,8.13
2018-11-14T12:57:32.970Z,6.00
2018-11-14T13:02:36.583Z,3.87
2018-11-14T13:07:40.210Z,5.87
2018-11-14T13:12:44.341Z,7.67
2018-11-14T13:17:47.766Z,4.03
2018-11-14T13:22:52.083Z,6.30
2018-11-14T13:27:55.669Z,8.20
2018-11-14T13:32:59.149Z,4.07
2018-11-14T13:38:02.584Z,9.17
2018-11-14T13:43:06.054Z,4.80
2018-11-14T13:48:09.402Z,7.63
2018-11-14T13:53:12.766Z,7.13
2018-11-14T13:58:16.182Z,6.77
2018-11-14T14:03:19.548Z,7.27
2018-11-14T14:08:22.888Z,5.20
2018-11-14T14:13:26.274Z,8.13
2018-11-14T14:18:29.643Z,8.73
2018-11-14T14:23:33.116Z,7.23
2018-11-14T14:28:36.514Z,5.83
2018-11-14T14:33:39.874Z,6.20
2018-11-14T14:38:43.237Z,9.80
2018-11-14T14:43:46.703Z,7.27
2018-11-14T14:48:50.271Z,5.33
2018-11-14T14:53:53.639Z,7.53
2018-11-14T14:58:57.040Z,4.73
2018-11-14T15:04:00.454Z,7.03
2018-11-14T15:09:04.094Z,5.67
2018-11-14T15:14:07.911Z,8.90
2018-11-14T15:19:11.319Z,9.50
2018-11-14T15:24:14.671Z,12.47
2018-11-14T15:29:18.771Z,8.83
2018-11-14T15:34:22.216Z,8.37
2018-11-14T15:39:25.592Z,6.20
2018-11-14T15:44:28.970Z,7.63
2018-11-14T15:49:32.357Z,7.67
2018-11-14T15:54:35.729Z,11.53
2018-11-14T15:59:39.249Z,9.40
2018-11-14T16:04:42.642Z,10.57
2018-11-14T16:09:46.057Z,8.07
2018-11-14T16:14:49.382Z,10.10
2018-11-14T16:19:53.064Z,11.10
2018-11-14T16:24:56.516Z,12.93
2018-11-14T16:29:59.880Z,11.07
2018-11-14T16:35:03.283Z,12.77
2018-11-14T16:40:09.194Z,10.00
2018-11-14T16:45:13.539Z,18.03
2018-11-14T16:50:18.013Z,12.40
2018-11-14T16:55:23.126Z,12.50
2018-11-14T17:00:27.816Z,16.50
2018-11-14T17:05:32.270Z,11.13
2018-11-14T17:10:35.667Z,9.70
2018-11-14T17:15:39.031Z,13.43
2018-11-14T17:20:42.420Z,10.87
2018-11-14T17:25:45.806Z,9.73
2018-11-14T17:30:49.242Z,9.97
2018-11-14T17:35:52.714Z,6.47
2018-11-14T17:40:56.157Z,9.20
2018-11-14T17:45:59.556Z,8.17
2018-11-14T17:51:02.923Z,9.10
2018-11-14T17:56:06.378Z,12.10
2018-11-14T18:01:09.847Z,8.57
2018-11-14T18:06:13.266Z,7.93
2018-11-14T18:11:16.769Z,7.67
2018-11-14T18:16:20.175Z,10.07
2018-11-14T18:21:23.518Z,6.83
2018-11-14T18:26:26.909Z,12.20
2018-11-14T18:31:30.303Z,9.37
2018-11-14T18:36:33.789Z,8.50
2018-11-14T18:41:37.170Z,9.23
2018-11-14T18:46:40.592Z,11.70
2018-11-14T18:51:44.570Z,12.33
2018-11-14T18:56:47.970Z,10.90
2018-11-14T19:01:51.469Z,11.10
2018-11-14T19:06:55.038Z,10.53
2018-11-14T19:11:58.375Z,10.90
2018-11-14T19:17:01.778Z,8.20
2018-11-14T19:22:05.403Z,9.70
2018-11-14T19:27:08.827Z,11.57
2018-11-14T19:32:12.260Z,12.87
2018-11-14T19:37:15.615Z,11.07
2018-11-14T19:42:19.606Z,10.50
2018-11-14T19:47:23.059Z,9.50
2018-11-14T19:52:26.425Z,10.77
2018-11-14T19:57:29.815Z,12.67
2018-11-14T20:02:33.466Z,12.20
2018-11-14T20:07:37.422Z,8.97
2018-11-14T20:12:40.963Z,9.70
2018-11-14T20:17:45.306Z,11.30
2018-11-14T20:22:48.734Z,10.03
2018-11-14T20:27:52.101Z,10.83
2018-11-14T20:32:56.735Z,9.10
2018-11-14T20:38:00.111Z,11.13
2018-11-14T20:43:03.691Z,9.80
2018-11-14T20:48:07.078Z,12.17
2018-11-14T20:53:10.543Z,9.47
2018-11-14T20:58:13.896Z,12.53
2018-11-14T21:03:17.529Z,10.80
2018-11-14T21:08:20.870Z,11.20
2018-11-14T21:13:24.403Z,13.90
2018-11-14T21:18:27.772Z,13.30
2018-11-14T21:23:31.186Z,11.27
2018-11-14T21:28:34.543Z,12.63
2018-11-14T21:33:38.941Z,9.23
2018-11-14T21:38:42.295Z,14.07
2018-11-14T21:43:45.649Z,11.70
2018-11-14T21:48:48.997Z,13.00
2018-11-14T21:53:52.487Z,10.87
2018-11-14T21:58:55.893Z,11.60
2018-11-14T22:03:59.284Z,11.37
2018-11-14T22:09:02.678Z,12.03
2018-11-14T22:14:06.034Z,14.03
2018-11-14T22:19:09.480Z,13.03
2018-11-14T22:24:12.859Z,13.13
2018-11-14T22:29:16.269Z,13.43
2018-11-14T22:34:19.614Z,7.77
2018-11-14T22:39:22.975Z,12.73
2018-11-14T22:44:26.354Z,12.40
2018-11-14T22:49:29.717Z,10.57
2018-11-14T22:54:33.186Z,10.77
2018-11-14T22:59:36.556Z,13.37
2018-11-14T23:04:39.904Z,9.87
2018-11-14T23:09:43.289Z,10.33
2018-11-14T23:14:46.659Z,9.60
2018-11-14T23:19:50.023Z,8.63
2018-11-14T23:24:54.207Z,11.53
2018-11-14T23:29:57.562Z,11.10
2018-11-14T23:35:06.269Z,12.10
2018-11-14T23:40:10.120Z,9.60
2018-11-14T23:45:14.696Z,10.43
2018-11-14T23:50:33.497Z,12.17
2018-11-14T23:55:36.862Z,10.73
